createdAt,value
2022-10-20T00:01:23.633Z,13.40
2022-10-20T00:03:51.516Z,13.30
2022-10-20T00:06:24.857Z,13.30
2022-10-20T00:08:53.802Z,13.30
2022-10-20T00:11:23.252Z,13.30
2022-10-20T00:13:53.166Z,13.30
2022-10-20T00:16:22.313Z,13.30
2022-10-20T00:18:49.086Z,13.30
2022-10-20T00:21:20.364Z,13.30
2022-10-20T00:23:47.452Z,13.30
2022-10-20T00:26:18.112Z,13.30
2022-10-20T00:28:45.399Z,13.30
2022-10-20T00:31:12.978Z,13.30
2022-10-20T00:33:40.402Z,13.30
2022-10-20T00:36:12.137Z,13.30
2022-10-20T00:38:39.000Z,13.30
2022-10-20T00:41:06.211Z,13.30
2022-10-20T00:43:48.006Z,13.30
2022-10-20T00:46:20.712Z,13.30
2022-10-20T00:48:53.744Z,13.30
2022-10-20T00:51:26.233Z,13.30
2022-10-20T00:54:06.772Z,13.30
2022-10-20T00:56:34.597Z,13.30
2022-10-20T00:59:03.975Z,13.30
2022-10-20T01:01:31.687Z,13.20
2022-10-20T01:03:59.266Z,13.20
2022-10-20T01:06:26.072Z,13.20
2022-10-20T01:08:54.781Z,13.20
2022-10-20T01:11:44.644Z,13.20
2022-10-20T01:14:29.293Z,13.20
2022-10-20T01:17:15.039Z,13.20
2022-10-20T01:19:47.872Z,13.20
2022-10-20T01:22:59.698Z,13.20
2022-10-20T01:25:39.915Z,13.20
2022-10-20T01:28:42.020Z,13.20
2022-10-20T01:31:35.618Z,13.10
2022-10-20T01:34:27.601Z,13.20
2022-10-20T01:37:12.361Z,13.20
2022-10-20T01:39:52.385Z,13.10
2022-10-20T01:42:24.359Z,13.10
2022-10-20T01:44:58.358Z,13.10
2022-10-20T01:47:29.067Z,13.20
2022-10-20T01:49:58.004Z,13.10
2022-10-20T01:52:28.559Z,13.20
2022-10-20T01:54:55.364Z,13.20
2022-10-20T01:58:23.278Z,13.20
2022-10-20T02:00:54.072Z,13.20
2022-10-20T02:03:52.670Z,13.20
2022-10-20T02:06:35.840Z,13.10
2022-10-20T02:09:08.365Z,13.10
2022-10-20T02:11:54.757Z,13.10
2022-10-20T02:14:23.272Z,13.10
2022-10-20T02:16:57.632Z,13.10
2022-10-20T02:19:31.076Z,13.10
2022-10-20T02:21:58.217Z,13.10
2022-10-20T02:24:35.466Z,13.10
2022-10-20T02:27:13.358Z,13.10
2022-10-20T02:29:47.461Z,13.10
2022-10-20T02:32:17.566Z,13.10
2022-10-20T02:34:45.091Z,13.10
2022-10-20T02:37:11.963Z,13.10
2022-10-20T02:39:38.696Z,13.10
2022-10-20T02:42:06.560Z,13.10
2022-10-20T02:44:33.324Z,13.10
2022-10-20T02:47:00.109Z,13.20
2022-10-20T02:49:27.332Z,13.20
2022-10-20T02:51:54.378Z,13.20
2022-10-20T02:54:21.342Z,13.20
2022-10-20T02:56:48.124Z,13.10
2022-10-20T02:59:16.872Z,13.20
2022-10-20T03:01:44.266Z,13.10
2022-10-20T03:04:12.129Z,13.20
2022-10-20T03:06:40.779Z,13.20
2022-10-20T03:09:07.826Z,13.20
2022-10-20T03:11:34.973Z,13.20
2022-10-20T03:14:02.109Z,13.20
2022-10-20T03:16:29.121Z,13.20
2022-10-20T03:18:59.919Z,13.20
2022-10-20T03:21:30.193Z,13.20
2022-10-20T03:23:56.927Z,13.20
2022-10-20T03:26:23.775Z,13.20
2022-10-20T03:28:50.508Z,13.20
2022-10-20T03:31:17.433Z,13.20
2022-10-20T03:33:44.165Z,13.20
2022-10-20T03:36:11.469Z,13.20
2022-10-20T03:38:42.037Z,13.20
2022-10-20T03:41:09.895Z,13.20
2022-10-20T03:43:38.129Z,13.20
2022-10-20T03:46:09.462Z,13.20
2022-10-20T03:48:37.949Z,13.20
2022-10-20T03:51:05.912Z,13.20
2022-10-20T03:53:33.254Z,13.20
2022-10-20T03:56:04.704Z,13.20
2022-10-20T03:58:31.379Z,13.20
2022-10-20T04:00:58.329Z,13.20
2022-10-20T04:03:25.046Z,13.20
2022-10-20T04:05:51.758Z,13.20
2022-10-20T04:08:18.573Z,13.20
2022-10-20T04:10:45.433Z,13.20
2022-10-20T04:13:12.146Z,13.20
2022-10-20T04:15:38.832Z,13.10
2022-10-20T04:18:05.693Z,13.10
2022-10-20T04:20:32.498Z,13.10
2022-10-20T04:22:59.179Z,13.20
2022-10-20T04:25:25.940Z,13.20
2022-10-20T04:27:52.627Z,13.20
2022-10-20T04:30:19.388Z,13.20
2022-10-20T04:32:46.083Z,13.20
2022-10-20T04:35:12.778Z,13.20
2022-10-20T04:37:39.880Z,13.20
2022-10-20T04:40:07.563Z,13.20
2022-10-20T04:42:34.319Z,13.20
2022-10-20T04:45:01.056Z,13.20
2022-10-20T04:47:33.070Z,13.20
2022-10-20T04:49:59.869Z,13.20
2022-10-20T04:52:28.678Z,13.20
2022-10-20T04:54:55.438Z,13.20
2022-10-20T04:57:22.229Z,13.20
2022-10-20T04:59:49.062Z,13.20
2022-10-20T05:02:15.884Z,13.20
2022-10-20T05:04:42.552Z,13.20
2022-10-20T05:07:09.299Z,13.20
2022-10-20T05:09:36.177Z,13.20
2022-10-20T05:12:03.275Z,13.20
2022-10-20T05:14:30.234Z,13.20
2022-10-20T05:16:56.942Z,13.20
2022-10-20T05:19:23.814Z,13.20
2022-10-20T05:21:50.546Z,13.20
2022-10-20T05:24:21.278Z,13.20
2022-10-20T05:26:49.500Z,13.20
2022-10-20T05:29:16.338Z,13.20
2022-10-20T05:31:44.125Z,13.20
2022-10-20T05:34:11.726Z,13.20
2022-10-20T05:36:39.093Z,13.20
2022-10-20T05:39:06.181Z,13.20
2022-10-20T05:41:37.822Z,13.20
2022-10-20T05:44:08.874Z,13.20
2022-10-20T05:46:40.993Z,13.20
2022-10-20T05:49:12.422Z,13.20
2022-10-20T05:51:39.295Z,13.20
2022-10-20T05:54:06.118Z,13.20
2022-10-20T05:56:34.206Z,13.20
2022-10-20T05:59:00.898Z,13.20
2022-10-20T06:01:39.898Z,13.20
2022-10-20T06:04:10.791Z,13.20
2022-10-20T06:06:37.480Z,13.20
2022-10-20T06:09:07.893Z,13.20
2022-10-20T06:11:39.312Z,13.10
2022-10-20T06:14:07.966Z,13.10
2022-10-20T06:16:35.243Z,13.20
2022-10-20T06:19:02.646Z,13.20
2022-10-20T06:21:32.952Z,13.20
2022-10-20T06:24:01.922Z,13.20
2022-10-20T06:26:31.915Z,13.20
2022-10-20T06:29:03.953Z,13.30
2022-10-20T06:31:39.106Z,13.30
2022-10-20T06:34:14.624Z,13.30
2022-10-20T06:36:42.621Z,13.30
2022-10-20T06:39:14.154Z,13.30
2022-10-20T06:41:41.414Z,13.30
2022-10-20T06:44:08.299Z,13.30
2022-10-20T06:46:37.390Z,13.30
2022-10-20T06:49:07.880Z,13.30
2022-10-20T06:51:35.816Z,13.40
2022-10-20T06:54:03.212Z,13.40
2022-10-20T06:56:33.365Z,13.40
2022-10-20T06:59:02.036Z,13.40
2022-10-20T07:01:35.971Z,13.50
2022-10-20T07:04:11.036Z,13.50
2022-10-20T07:06:41.811Z,13.50
2022-10-20T07:09:13.899Z,13.50
2022-10-20T07:11:41.553Z,13.60
2022-10-20T07:14:10.643Z,13.60
2022-10-20T07:16:37.386Z,13.60
2022-10-20T07:19:04.861Z,13.60
2022-10-20T07:21:35.965Z,13.70
2022-10-20T07:24:06.373Z,13.70
2022-10-20T07:26:36.952Z,13.70
2022-10-20T07:29:06.237Z,13.70
2022-10-20T07:31:39.985Z,13.80
2022-10-20T07:34:24.310Z,13.80
2022-10-20T07:36:52.990Z,13.90
2022-10-20T07:39:19.945Z,14.00
2022-10-20T07:41:48.097Z,14.00
2022-10-20T07:44:16.565Z,14.10
2022-10-20T07:46:43.606Z,14.10
2022-10-20T07:49:42.896Z,14.20
2022-10-20T07:51:57.253Z,14.20
2022-10-20T07:54:24.210Z,14.30
2022-10-20T07:56:51.354Z,14.40
2022-10-20T07:59:19.046Z,14.40
2022-10-20T08:01:46.123Z,14.50
2022-10-20T08:04:12.886Z,14.50
2022-10-20T08:06:39.746Z,14.70
2022-10-20T08:09:07.416Z,14.60
2022-10-20T08:11:35.138Z,14.70
2022-10-20T08:14:02.030Z,14.70
2022-10-20T08:16:36.545Z,14.70
2022-10-20T08:19:10.661Z,14.70
2022-10-20T08:21:37.604Z,14.70
2022-10-20T08:24:04.619Z,14.80
2022-10-20T08:26:31.419Z,14.80
2022-10-20T08:28:58.098Z,14.80
2022-10-20T08:31:24.905Z,14.80
2022-10-20T08:33:53.087Z,14.80
2022-10-20T08:36:21.192Z,14.80
2022-10-20T08:38:48.788Z,14.90
2022-10-20T08:41:27.017Z,14.90
2022-10-20T08:43:57.929Z,14.90
2022-10-20T08:46:32.910Z,14.90
2022-10-20T08:49:00.414Z,14.90
2022-10-20T08:51:38.383Z,15.00
2022-10-20T08:54:12.653Z,15.10
2022-10-20T08:56:39.424Z,15.10
2022-10-20T08:59:34.536Z,15.20
2022-10-20T09:02:07.040Z,15.30
2022-10-20T09:05:00.886Z,15.20
2022-10-20T09:07:48.338Z,15.40
2022-10-20T09:10:35.805Z,15.40
2022-10-20T09:13:11.278Z,15.40
2022-10-20T09:15:38.956Z,15.40
2022-10-20T09:18:12.019Z,15.40
2022-10-20T09:21:00.458Z,15.40
2022-10-20T09:23:48.267Z,15.30
2022-10-20T09:26:37.533Z,15.30
2022-10-20T09:29:15.349Z,15.30
2022-10-20T09:31:55.020Z,15.30
2022-10-20T09:34:29.768Z,15.20
2022-10-20T09:37:07.488Z,15.20
2022-10-20T09:39:51.313Z,15.20
2022-10-20T09:42:27.387Z,15.20
2022-10-20T09:45:23.948Z,15.20
2022-10-20T09:48:17.482Z,15.30
2022-10-20T09:50:51.083Z,15.30
2022-10-20T09:53:23.762Z,15.40
2022-10-20T09:55:51.710Z,15.40
2022-10-20T09:58:30.771Z,15.40
2022-10-20T10:01:15.974Z,15.40
2022-10-20T10:03:49.266Z,15.50
2022-10-20T10:06:33.596Z,15.60
2022-10-20T10:09:02.448Z,15.60
2022-10-20T10:11:35.684Z,15.60
2022-10-20T10:14:04.704Z,15.70
2022-10-20T10:16:42.907Z,15.70
2022-10-20T10:19:19.358Z,15.70
2022-10-20T10:21:53.717Z,15.70
2022-10-20T10:24:47.107Z,15.40
2022-10-20T10:27:36.162Z,15.70
2022-10-20T10:30:27.613Z,15.80
2022-10-20T10:32:55.665Z,15.90
2022-10-20T10:35:28.895Z,15.90
2022-10-20T10:37:57.953Z,16.00
2022-10-20T10:40:57.025Z,16.00
2022-10-20T10:43:33.679Z,16.00
2022-10-20T10:46:07.761Z,16.10
2022-10-20T10:48:54.533Z,16.10
2022-10-20T10:51:38.094Z,16.00
2022-10-20T10:54:29.740Z,16.00
2022-10-20T10:57:49.374Z,16.00
2022-10-20T11:00:50.017Z,15.90
2022-10-20T11:03:54.745Z,15.90
2022-10-20T11:06:47.700Z,15.80
2022-10-20T11:09:43.323Z,15.80
2022-10-20T11:12:47.446Z,15.80
2022-10-20T11:15:44.200Z,15.80
2022-10-20T11:18:44.534Z,15.80
2022-10-20T11:21:36.943Z,15.90
2022-10-20T11:24:47.850Z,15.90
2022-10-20T11:27:22.941Z,15.90
2022-10-20T11:29:58.105Z,15.90
2022-10-20T11:32:38.025Z,15.90
2022-10-20T11:35:38.411Z,15.90
2022-10-20T11:38:26.406Z,15.90
2022-10-20T11:41:04.028Z,15.90
2022-10-20T11:43:50.437Z,15.90
2022-10-20T11:46:41.841Z,15.90
2022-10-20T11:49:12.056Z,15.90
2022-10-20T11:51:56.548Z,15.90
2022-10-20T11:54:38.144Z,15.90
2022-10-20T11:57:29.555Z,15.90
2022-10-20T12:00:33.421Z,15.90
2022-10-20T12:03:30.763Z,15.90
2022-10-20T12:06:10.363Z,15.90
2022-10-20T12:09:13.998Z,16.00
2022-10-20T12:12:03.744Z,16.00
2022-10-20T12:14:51.648Z,16.10
2022-10-20T12:17:31.126Z,16.20
2022-10-20T12:20:38.725Z,16.20
2022-10-20T12:23:05.800Z,16.30
2022-10-20T12:25:40.452Z,16.30
2022-10-20T12:28:22.634Z,16.50
2022-10-20T12:31:04.834Z,16.50
2022-10-20T12:33:49.679Z,16.60
2022-10-20T12:36:19.079Z,16.70
2022-10-20T12:38:54.555Z,16.70
2022-10-20T12:41:35.216Z,16.70
2022-10-20T12:44:06.886Z,16.90
2022-10-20T12:46:41.494Z,16.90
2022-10-20T12:49:23.677Z,16.90
2022-10-20T12:51:56.643Z,17.00
2022-10-20T12:54:26.584Z,17.00
2022-10-20T12:57:00.169Z,17.00
2022-10-20T12:59:29.575Z,17.00
2022-10-20T13:02:11.290Z,17.00
2022-10-20T13:04:59.802Z,17.10
2022-10-20T13:07:59.731Z,17.20
2022-10-20T13:10:37.998Z,17.20
2022-10-20T13:13:04.602Z,17.20
2022-10-20T13:15:44.487Z,17.20
2022-10-20T13:18:15.966Z,17.30
2022-10-20T13:21:01.231Z,17.30
2022-10-20T13:23:41.017Z,17.30
2022-10-20T13:26:32.171Z,17.60
2022-10-20T13:29:01.367Z,17.40
2022-10-20T13:31:42.071Z,17.40
2022-10-20T13:34:26.850Z,17.40
2022-10-20T13:37:53.226Z,17.50
2022-10-20T13:40:30.120Z,17.50
2022-10-20T13:43:36.716Z,17.60
2022-10-20T13:46:52.858Z,17.60
2022-10-20T13:50:12.418Z,17.70
2022-10-20T13:52:45.160Z,17.80
2022-10-20T13:55:28.872Z,17.90
2022-10-20T13:58:20.238Z,17.90
2022-10-20T14:01:01.281Z,17.90
2022-10-20T14:03:30.970Z,17.80
2022-10-20T14:05:59.276Z,17.90
2022-10-20T14:08:26.380Z,17.90
2022-10-20T14:11:08.439Z,18.00
2022-10-20T14:13:36.780Z,18.00
2022-10-20T14:16:19.784Z,18.00
2022-10-20T14:19:06.202Z,17.90
2022-10-20T14:21:45.734Z,18.00
2022-10-20T14:24:29.190Z,18.00
2022-10-20T14:29:38.994Z,18.10
2022-10-20T14:32:06.904Z,18.10
2022-10-20T14:34:36.421Z,18.20
2022-10-20T14:37:29.923Z,18.20
2022-10-20T14:40:00.196Z,18.30
2022-10-20T14:42:32.233Z,18.30
2022-10-20T14:45:01.835Z,18.40
2022-10-20T14:47:41.823Z,18.40
2022-10-20T14:50:25.723Z,18.50
2022-10-20T14:52:54.170Z,18.50
2022-10-20T14:55:37.219Z,18.50
2022-10-20T14:58:04.118Z,18.50
2022-10-20T15:00:36.299Z,18.60
2022-10-20T15:03:07.191Z,18.60
2022-10-20T15:05:39.676Z,18.60
2022-10-20T15:08:26.602Z,18.70
2022-10-20T15:10:53.907Z,18.70
2022-10-20T15:13:33.176Z,18.70
2022-10-20T15:16:02.862Z,18.80
2022-10-20T15:18:30.327Z,18.90
2022-10-20T15:20:57.483Z,18.90
2022-10-20T15:23:28.389Z,18.90
2022-10-20T15:26:06.435Z,19.00
2022-10-20T15:28:48.304Z,19.00
2022-10-20T15:31:28.526Z,19.10
2022-10-20T15:33:58.261Z,19.10
2022-10-20T15:36:31.719Z,19.20
2022-10-20T15:38:59.289Z,19.40
2022-10-20T15:41:30.492Z,19.50
2022-10-20T15:44:22.917Z,19.30
2022-10-20T15:46:53.524Z,19.50
2022-10-20T15:49:20.715Z,19.40
2022-10-20T15:51:50.317Z,19.40
2022-10-20T15:54:20.562Z,19.40
2022-10-20T15:56:47.870Z,19.50
2022-10-20T15:59:14.864Z,19.40
2022-10-20T16:01:41.608Z,19.40
2022-10-20T16:04:26.320Z,19.40
2022-10-20T16:06:59.020Z,19.30
2022-10-20T16:09:28.737Z,19.30
2022-10-20T16:11:55.511Z,19.30
2022-10-20T16:14:22.197Z,19.30
2022-10-20T16:16:48.979Z,19.30
2022-10-20T16:19:15.660Z,19.20
2022-10-20T16:21:42.403Z,19.20
2022-10-20T16:24:09.174Z,19.20
2022-10-20T16:26:35.903Z,19.10
2022-10-20T16:29:02.619Z,19.10
2022-10-20T16:31:29.528Z,19.10
2022-10-20T16:34:00.092Z,19.00
2022-10-20T16:36:26.956Z,19.00
2022-10-20T16:38:57.420Z,18.90
2022-10-20T16:41:24.885Z,18.90
2022-10-20T16:43:51.649Z,18.90
2022-10-20T16:46:18.857Z,18.70
2022-10-20T16:48:47.970Z,18.80
2022-10-20T16:51:15.707Z,18.70
2022-10-20T16:53:42.574Z,18.90
2022-10-20T16:56:09.737Z,18.60
2022-10-20T16:58:36.554Z,18.60
2022-10-20T17:01:12.355Z,18.50
2022-10-20T17:06:20.345Z,18.40
2022-10-20T17:08:47.267Z,18.50
2022-10-20T17:11:21.928Z,18.30
2022-10-20T17:13:48.767Z,18.30
2022-10-20T17:16:29.165Z,18.10
2022-10-20T17:18:58.505Z,18.20
2022-10-20T17:21:26.418Z,18.10
2022-10-20T17:23:53.197Z,18.10
2022-10-20T17:26:26.375Z,18.10
2022-10-20T17:28:58.861Z,18.00
2022-10-20T17:31:26.079Z,18.00
2022-10-20T17:33:54.772Z,18.00
2022-10-20T17:36:26.010Z,18.00
2022-10-20T17:39:00.048Z,17.90
2022-10-20T17:41:27.339Z,17.90
2022-10-20T17:43:54.169Z,17.90
2022-10-20T17:46:21.670Z,17.90
2022-10-20T17:48:48.432Z,17.90
2022-10-20T17:51:19.543Z,17.90
2022-10-20T17:53:49.463Z,17.90
2022-10-20T17:56:20.397Z,17.90
2022-10-20T17:58:49.214Z,17.90
2022-10-20T18:01:22.117Z,17.90
2022-10-20T18:03:54.649Z,17.90
2022-10-20T18:06:24.257Z,17.90
2022-10-20T18:08:55.913Z,18.00
2022-10-20T18:11:27.373Z,18.00
2022-10-20T18:13:57.601Z,18.00
2022-10-20T18:16:25.406Z,18.10
2022-10-20T18:18:52.538Z,18.00
2022-10-20T18:21:20.405Z,18.00
2022-10-20T18:23:48.359Z,18.00
2022-10-20T18:26:20.129Z,18.00
2022-10-20T18:28:48.713Z,18.10
2022-10-20T18:31:21.004Z,18.10
2022-10-20T18:33:50.684Z,18.10
2022-10-20T18:36:19.186Z,18.10
2022-10-20T18:38:47.335Z,18.30
2022-10-20T18:41:20.666Z,18.20
2022-10-20T18:43:57.641Z,18.20
2022-10-20T18:46:30.365Z,18.20
2022-10-20T18:49:03.250Z,18.30
2022-10-20T18:51:32.045Z,18.30
2022-10-20T18:54:00.706Z,18.30
2022-10-20T18:56:29.921Z,18.40
2022-10-20T18:59:08.947Z,18.40
2022-10-20T19:01:39.100Z,18.40
2022-10-20T19:04:08.502Z,18.50
2022-10-20T19:06:39.817Z,18.60
2022-10-20T19:09:16.952Z,18.70
2022-10-20T19:11:44.928Z,18.70
2022-10-20T19:14:12.266Z,18.80
2022-10-20T19:16:42.101Z,18.90
2022-10-20T19:19:10.862Z,19.00
2022-10-20T19:21:38.421Z,19.10
2022-10-20T19:24:16.010Z,19.10
2022-10-20T19:26:57.094Z,19.10
2022-10-20T19:29:29.720Z,19.20
2022-10-20T19:32:00.107Z,19.30
2022-10-20T19:34:40.010Z,19.30
2022-10-20T19:37:07.912Z,19.30
2022-10-20T19:39:39.675Z,19.30
2022-10-20T19:42:09.091Z,19.40
2022-10-20T19:44:38.061Z,19.30
2022-10-20T19:47:06.184Z,19.40
2022-10-20T19:49:33.479Z,19.30
2022-10-20T19:52:00.295Z,19.30
2022-10-20T19:54:27.488Z,19.30
2022-10-20T19:56:54.364Z,19.30
2022-10-20T19:59:21.357Z,19.20
2022-10-20T20:01:49.622Z,19.20
2022-10-20T20:04:16.574Z,19.20
2022-10-20T20:06:43.323Z,19.20
2022-10-20T20:09:11.878Z,19.30
2022-10-20T20:11:39.980Z,19.10
2022-10-20T20:14:12.378Z,19.10
2022-10-20T20:16:39.875Z,19.10
2022-10-20T20:19:07.112Z,19.00
2022-10-20T20:21:34.065Z,19.00
2022-10-20T20:24:03.517Z,19.00
2022-10-20T20:26:37.007Z,19.00
2022-10-20T20:29:05.240Z,19.00
2022-10-20T20:31:33.036Z,19.00
2022-10-20T20:33:59.808Z,19.00
2022-10-20T20:36:28.089Z,19.10
2022-10-20T20:38:58.168Z,19.00
2022-10-20T20:41:30.018Z,19.10
2022-10-20T20:43:57.448Z,19.10
2022-10-20T20:46:29.022Z,19.10
2022-10-20T20:48:56.681Z,19.10
2022-10-20T20:51:25.356Z,19.10
2022-10-20T20:53:52.018Z,19.10
2022-10-20T20:56:21.772Z,19.10
2022-10-20T20:58:50.465Z,19.10
2022-10-20T21:01:27.043Z,19.00
2022-10-20T21:04:00.408Z,19.00
2022-10-20T21:06:33.603Z,18.90
2022-10-20T21:09:01.557Z,18.90
2022-10-20T21:11:28.468Z,18.80
2022-10-20T21:13:58.720Z,18.80
2022-10-20T21:16:32.703Z,18.70
2022-10-20T21:19:08.490Z,18.70
2022-10-20T21:21:47.020Z,18.70
2022-10-20T21:24:13.842Z,18.60
2022-10-20T21:26:40.801Z,18.60
2022-10-20T21:29:07.573Z,18.60
2022-10-20T21:31:34.394Z,18.60
2022-10-20T21:34:04.654Z,18.60
2022-10-20T21:36:35.230Z,18.60
2022-10-20T21:39:05.243Z,18.60
2022-10-20T21:41:34.944Z,18.70
2022-10-20T21:44:04.769Z,18.50
2022-10-20T21:46:42.041Z,18.50
2022-10-20T21:49:13.783Z,18.50
2022-10-20T21:51:48.276Z,18.50
2022-10-20T21:56:48.690Z,18.40
2022-10-20T21:59:30.976Z,18.40
2022-10-20T22:02:01.141Z,18.40
2022-10-20T22:04:29.837Z,18.40
2022-10-20T22:06:57.602Z,18.40
2022-10-20T22:09:24.633Z,18.30
2022-10-20T22:11:55.459Z,18.30
2022-10-20T22:14:23.339Z,18.40
2022-10-20T22:16:50.501Z,18.40
2022-10-20T22:19:23.638Z,18.50
2022-10-20T22:21:52.940Z,18.50
2022-10-20T22:24:21.298Z,18.60
2022-10-20T22:26:51.393Z,18.70
2022-10-20T22:29:20.721Z,18.70
2022-10-20T22:31:47.771Z,18.80
2022-10-20T22:34:14.670Z,18.90
2022-10-20T22:36:41.409Z,19.00
2022-10-20T22:39:08.846Z,19.00
2022-10-20T22:41:36.447Z,19.10
2022-10-20T22:44:03.244Z,19.10
2022-10-20T22:46:29.961Z,19.20
2022-10-20T22:51:23.412Z,19.30
2022-10-20T22:53:50.257Z,19.30
2022-10-20T22:56:23.186Z,19.30
2022-10-20T22:58:53.516Z,19.30
2022-10-20T23:01:23.049Z,19.30
2022-10-20T23:03:50.614Z,19.40
2022-10-20T23:06:22.670Z,19.40
2022-10-20T23:08:53.411Z,19.40
2022-10-20T23:11:21.246Z,19.40
2022-10-20T23:13:49.837Z,19.40
2022-10-20T23:16:16.964Z,19.40
2022-10-20T23:18:43.854Z,19.40
2022-10-20T23:21:13.491Z,19.40
2022-10-20T23:23:41.019Z,19.40
2022-10-20T23:26:09.302Z,19.50
2022-10-20T23:28:37.785Z,19.50
2022-10-20T23:31:16.906Z,19.40
2022-10-20T23:33:46.105Z,19.30
2022-10-20T23:36:15.465Z,19.30
2022-10-20T23:38:43.306Z,19.30
2022-10-20T23:41:10.551Z,19.30
2022-10-20T23:43:37.382Z,19.30
2022-10-20T23:46:04.514Z,19.30
2022-10-20T23:48:31.240Z,19.20
2022-10-20T23:50:58.220Z,19.30
2022-10-20T23:53:25.424Z,19.30
2022-10-20T23:55:52.503Z,19.20
2022-10-20T23:58:22.163Z,19.20
